Time;durP1;ratioP1;P1;durP2;ratioP2;P2;SDS_P1;SDS_P2;PMS_P1;PMS_P2;Temp;Humidity;BMP_temperature;BMP_pressure;BME280_temperature;BME280_humidity;BME280_pressure;Samples;Min_cycle;Max_cycle;Signal;HPM_P1;HPM_P2
2021/05/16 00:01:30;;;;;;;11.13;10.03;;;10.50;98.30;;;;;;5145546;23;20456;-81
2021/05/16 00:03:32;;;;;;;10.63;9.53;;;10.50;98.30;;;;;;5155360;23;20477;-81
2021/05/16 00:05:35;;;;;;;11.83;9.60;;;10.50;98.30;;;;;;5146053;23;20520;-80
2021/05/16 00:07:38;;;;;;;9.67;8.67;;;10.50;98.30;;;;;;5146199;23;20425;-82
2021/05/16 00:09:40;;;;;;;10.87;9.77;;;10.40;98.30;;;;;;5147050;23;20431;-82
2021/05/16 00:11:43;;;;;;;11.00;9.90;;;10.50;98.30;;;;;;5146648;23;20428;-81
2021/05/16 00:13:45;;;;;;;11.17;10.07;;;10.50;98.30;;;;;;5145495;23;20445;-81
2021/05/16 00:15:48;;;;;;;11.30;9.77;;;10.50;98.30;;;;;;5145462;23;20429;-82
2021/05/16 00:17:50;;;;;;;11.03;9.93;;;10.50;98.30;;;;;;5145242;23;20478;-82
2021/05/16 00:19:53;;;;;;;10.60;9.50;;;10.40;98.30;;;;;;5145342;23;20889;-80
2021/05/16 00:21:56;;;;;;;11.30;10.20;;;10.40;98.30;;;;;;5145679;23;20445;-82
2021/05/16 00:23:59;;;;;;;11.07;9.80;;;10.40;98.30;;;;;;5144271;23;20461;-81
2021/05/16 00:26:01;;;;;;;12.00;9.20;;;10.40;98.30;;;;;;5153671;23;20424;-80
2021/05/16 00:28:05;;;;;;;11.30;10.20;;;10.30;98.30;;;;;;5144085;23;20434;-81
2021/05/16 00:30:09;;;;;;;10.37;9.37;;;10.30;98.30;;;;;;5145546;23;20435;-81
2021/05/16 00:32:12;;;;;;;10.20;9.20;;;10.30;98.30;;;;;;5146627;23;20429;-82
2021/05/16 00:34:16;;;;;;;9.80;8.90;;;10.20;98.30;;;;;;5145766;23;20433;-81
2021/05/16 00:36:19;;;;;;;10.00;9.00;;;10.20;98.30;;;;;;5145878;23;20801;-82
2021/05/16 00:38:22;;;;;;;11.40;9.83;;;10.20;98.30;;;;;;5144689;23;20501;-82
2021/05/16 00:40:24;;;;;;;11.30;9.47;;;10.20;98.30;;;;;;5146138;23;20432;-81
2021/05/16 00:42:27;;;;;;;10.23;9.23;;;10.20;98.30;;;;;;5145579;23;20782;-82
2021/05/16 00:44:29;;;;;;;10.70;9.00;;;10.20;98.30;;;;;;5145896;23;20433;-80
2021/05/16 00:46:31;;;;;;;11.40;10.20;;;10.20;98.30;;;;;;5145900;23;20496;-81
2021/05/16 00:48:34;;;;;;;9.10;8.20;;;10.20;98.30;;;;;;5153697;23;20416;-81
2021/05/16 00:50:38;;;;;;;10.77;9.67;;;10.20;98.30;;;;;;5146907;23;20742;-81
2021/05/16 00:52:42;;;;;;;10.33;9.23;;;10.30;98.30;;;;;;5144468;23;20452;-82
2021/05/16 00:54:46;;;;;;;9.90;8.90;;;10.20;98.30;;;;;;5145080;23;20417;-82
2021/05/16 00:56:48;;;;;;;10.93;9.70;;;10.20;98.30;;;;;;5145575;23;20491;-82
2021/05/16 00:58:51;;;;;;;9.60;8.60;;;10.20;98.30;;;;;;5153261;23;20428;-81
2021/05/16 01:00:53;;;;;;;9.63;8.70;;;10.20;98.30;;;;;;5145490;23;20506;-82
2021/05/16 01:02:55;;;;;;;11.00;9.50;;;10.10;98.30;;;;;;5153561;23;20448;-81
2021/05/16 01:04:58;;;;;;;10.30;9.30;;;10.20;98.30;;;;;;5144131;23;20433;-80
2021/05/16 01:07:00;;;;;;;10.07;9.07;;;10.20;98.30;;;;;;5145707;23;20439;-81
2021/05/16 01:09:07;;;;;;;10.20;9.20;;;10.20;98.30;;;;;;5145663;23;20479;-82
2021/05/16 01:11:11;;;;;;;9.63;8.67;;;10.20;98.30;;;;;;5147536;23;21064;-81
2021/05/16 01:13:14;;;;;;;9.87;8.70;;;10.20;98.30;;;;;;5145334;23;20449;-81
2021/05/16 01:15:20;;;;;;;10.10;9.10;;;10.20;98.30;;;;;;5145197;23;20906;-82
2021/05/16 01:17:22;;;;;;;9.70;8.67;;;10.20;98.30;;;;;;5145752;23;20409;-81
2021/05/16 01:19:24;;;;;;;10.10;9.10;;;10.20;98.30;;;;;;5146850;23;20435;-81
2021/05/16 01:21:27;;;;;;;10.67;9.57;;;10.10;98.30;;;;;;5146585;23;20445;-81
2021/05/16 01:23:34;;;;;;;9.63;8.63;;;10.10;98.30;;;;;;5153418;23;20771;-81
2021/05/16 01:25:38;;;;;;;9.40;8.50;;;10.10;98.30;;;;;;5146453;23;20738;-81
2021/05/16 01:27:41;;;;;;;8.90;8.00;;;10.10;98.30;;;;;;5147197;23;20737;-82
2021/05/16 01:29:43;;;;;;;8.57;7.73;;;10.10;98.30;;;;;;5147756;23;20503;-82
2021/05/16 01:31:47;;;;;;;9.13;8.20;;;10.00;98.30;;;;;;5146964;23;20425;-81
2021/05/16 01:33:49;;;;;;;10.50;9.20;;;10.00;98.30;;;;;;5155356;23;20452;-81
2021/05/16 01:35:52;;;;;;;9.57;8.60;;;10.00;98.30;;;;;;5145992;23;21017;-82
2021/05/16 01:37:55;;;;;;;10.93;8.67;;;10.00;98.30;;;;;;5146645;23;20439;-80
2021/05/16 01:39:57;;;;;;;9.17;8.27;;;10.00;98.30;;;;;;5156016;23;20500;-82
2021/05/16 01:42:00;;;;;;;9.07;7.80;;;10.00;98.30;;;;;;5148092;23;20634;-81
2021/05/16 01:44:04;;;;;;;10.10;9.20;;;10.00;98.30;;;;;;5146872;23;20433;-82
2021/05/16 01:46:07;;;;;;;8.40;7.57;;;9.90;98.30;;;;;;5148443;23;20425;-81
2021/05/16 01:48:09;;;;;;;8.83;7.97;;;9.90;98.30;;;;;;5147818;23;20905;-81
2021/05/16 01:50:14;;;;;;;8.80;7.90;;;10.00;98.30;;;;;;5148245;23;20536;-81
2021/05/16 01:52:16;;;;;;;8.30;7.50;;;9.90;98.30;;;;;;5146976;23;20938;-81
2021/05/16 01:54:19;;;;;;;8.80;7.90;;;9.90;98.30;;;;;;5145894;23;20421;-81
2021/05/16 01:56:23;;;;;;;7.70;6.90;;;10.00;98.30;;;;;;5144938;23;21107;-81
2021/05/16 01:58:26;;;;;;;8.50;7.70;;;10.10;98.30;;;;;;5148423;23;20428;-81
2021/05/16 02:00:31;;;;;;;8.50;7.00;;;10.00;98.30;;;;;;5156209;23;20428;-82
2021/05/16 02:02:34;;;;;;;8.77;8.03;;;10.00;98.30;;;;;;5148129;23;20453;-82
2021/05/16 02:04:38;;;;;;;8.37;7.50;;;10.00;98.30;;;;;;5147437;23;20439;-82
2021/05/16 02:06:41;;;;;;;8.40;7.60;;;10.00;98.30;;;;;;5146405;23;20429;-81
2021/05/16 02:08:44;;;;;;;8.17;7.30;;;10.00;98.30;;;;;;5146831;23;20447;-81
2021/05/16 02:10:48;;;;;;;10.20;7.80;;;10.00;98.30;;;;;;5145169;23;20915;-80
2021/05/16 02:12:50;;;;;;;9.23;7.70;;;10.00;98.30;;;;;;5143351;23;20774;-80
2021/05/16 02:14:53;;;;;;;8.30;7.50;;;10.10;98.30;;;;;;5142985;23;20918;-80
2021/05/16 02:16:56;;;;;;;8.70;7.70;;;10.10;98.30;;;;;;5143608;23;20541;-81
2021/05/16 02:18:58;;;;;;;8.73;7.90;;;10.10;98.30;;;;;;5143061;23;20439;-80
2021/05/16 02:21:02;;;;;;;9.20;8.33;;;10.10;98.30;;;;;;5145487;23;20452;-80
2021/05/16 02:23:05;;;;;;;8.70;7.87;;;10.10;98.30;;;;;;5143808;23;20452;-82
2021/05/16 02:25:09;;;;;;;9.13;7.83;;;10.10;98.30;;;;;;5143743;23;20926;-81
2021/05/16 02:27:12;;;;;;;10.37;8.47;;;10.10;98.30;;;;;;5143049;23;20432;-81
2021/05/16 02:29:15;;;;;;;8.33;7.63;;;10.10;98.30;;;;;;5143773;23;20439;-82
2021/05/16 02:31:19;;;;;;;9.50;8.03;;;10.00;98.30;;;;;;5144169;23;20507;-81
2021/05/16 02:33:21;;;;;;;11.50;8.53;;;10.00;98.30;;;;;;5143470;23;20529;-81
2021/05/16 02:35:24;;;;;;;9.00;8.10;;;10.00;98.30;;;;;;5143289;23;20436;-81
2021/05/16 02:37:26;;;;;;;11.20;8.30;;;9.90;98.30;;;;;;5143590;23;20436;-82
2021/05/16 02:39:29;;;;;;;10.13;8.07;;;9.90;98.30;;;;;;5144646;23;20424;-81
2021/05/16 02:41:31;;;;;;;8.60;7.70;;;9.90;98.30;;;;;;5151076;23;20814;-80
2021/05/16 02:43:34;;;;;;;8.90;8.00;;;9.90;98.30;;;;;;5141196;23;20468;-81
2021/05/16 02:45:36;;;;;;;10.13;9.10;;;9.90;98.30;;;;;;5140854;23;20479;-80
2021/05/16 02:47:39;;;;;;;10.20;9.20;;;9.80;98.30;;;;;;5139991;23;20436;-81
2021/05/16 02:49:41;;;;;;;10.67;9.33;;;9.80;98.30;;;;;;5140770;23;20459;-81
2021/05/16 02:51:44;;;;;;;11.90;8.03;;;9.90;98.30;;;;;;5141478;23;20929;-80
2021/05/16 02:53:46;;;;;;;8.90;7.70;;;9.80;98.30;;;;;;5149093;23;20449;-81
2021/05/16 02:55:49;;;;;;;9.10;7.90;;;9.80;98.30;;;;;;5149500;23;20424;-81
2021/05/16 02:57:51;;;;;;;9.73;8.70;;;9.80;98.30;;;;;;5150807;23;20902;-81
2021/05/16 02:59:55;;;;;;;9.60;8.70;;;9.80;98.30;;;;;;5142413;23;20432;-80
2021/05/16 03:01:57;;;;;;;8.90;7.87;;;9.90;98.30;;;;;;5140116;23;20441;-81
2021/05/16 03:04:00;;;;;;;8.50;7.63;;;9.80;98.30;;;;;;5140637;23;20436;-79
2021/05/16 03:06:03;;;;;;;9.70;8.80;;;9.90;98.30;;;;;;5140277;23;20838;-81
2021/05/16 03:08:06;;;;;;;8.87;7.87;;;9.90;98.30;;;;;;5140790;23;20894;-80
2021/05/16 03:10:09;;;;;;;9.80;8.10;;;9.90;98.30;;;;;;5141950;23;20433;-80
2021/05/16 03:12:12;;;;;;;9.10;8.10;;;9.80;98.30;;;;;;5141578;23;20433;-80
2021/05/16 03:14:14;;;;;;;9.13;8.13;;;9.80;98.30;;;;;;5141304;23;20429;-80
2021/05/16 03:16:17;;;;;;;8.47;7.67;;;9.80;98.30;;;;;;5141567;23;20961;-80
2021/05/16 03:18:20;;;;;;;11.33;7.90;;;9.90;98.30;;;;;;5140052;23;20482;-81
2021/05/16 03:20:23;;;;;;;8.77;7.70;;;9.90;98.30;;;;;;5142108;23;20507;-79
2021/05/16 03:22:25;;;;;;;8.23;7.43;;;10.00;98.30;;;;;;5141049;23;20532;-81
2021/05/16 03:24:28;;;;;;;10.50;8.70;;;10.00;98.30;;;;;;5141811;23;20467;-81
2021/05/16 03:26:30;;;;;;;9.30;8.40;;;10.00;98.30;;;;;;5141905;23;20429;-80
2021/05/16 03:28:33;;;;;;;8.60;7.70;;;9.90;98.30;;;;;;5141681;23;20964;-80
2021/05/16 03:30:35;;;;;;;9.40;8.40;;;9.90;98.30;;;;;;5149748;23;20424;-81
2021/05/16 03:32:41;;;;;;;9.63;8.40;;;10.00;98.30;;;;;;5141244;23;20441;-81
2021/05/16 03:34:43;;;;;;;9.90;8.90;;;9.90;98.30;;;;;;5137243;23;20444;-81
2021/05/16 03:36:45;;;;;;;10.07;8.50;;;9.90;98.30;;;;;;5141544;23;20472;-81
2021/05/16 03:38:48;;;;;;;9.33;8.37;;;9.90;98.30;;;;;;5139935;23;20731;-81
2021/05/16 03:40:50;;;;;;;9.30;8.30;;;9.90;98.30;;;;;;5141855;23;20490;-81
2021/05/16 03:42:52;;;;;;;8.93;8.00;;;9.90;98.30;;;;;;5140914;23;20448;-80
2021/05/16 03:44:55;;;;;;;8.93;7.43;;;9.90;98.30;;;;;;5141074;23;20435;-79
2021/05/16 03:46:58;;;;;;;21.17;13.93;;;9.90;98.30;;;;;;5140399;23;20433;-80
2021/05/16 03:49:01;;;;;;;11.07;8.90;;;9.90;98.30;;;;;;5140997;23;20432;-81
2021/05/16 03:51:04;;;;;;;8.50;7.70;;;9.90;98.30;;;;;;5141883;23;20425;-81
2021/05/16 04:04:42;;;;;;;9.63;8.63;;;9.90;98.30;;;;;;5150795;22;20986;-83
2021/05/16 04:06:44;;;;;;;9.90;8.30;;;9.90;98.30;;;;;;5147305;23;20441;-83
2021/05/16 04:08:47;;;;;;;8.83;7.53;;;9.90;98.30;;;;;;5148021;23;20436;-83
2021/05/16 04:10:49;;;;;;;8.97;8.07;;;9.90;98.30;;;;;;5150025;23;20620;-84
2021/05/16 04:12:52;;;;;;;8.83;7.50;;;10.00;98.30;;;;;;5157379;23;21022;-83
2021/05/16 04:14:54;;;;;;;8.87;7.20;;;10.00;98.30;;;;;;5150059;23;20453;-84
2021/05/16 04:16:57;;;;;;;8.73;7.23;;;10.00;98.30;;;;;;5158176;23;20500;-83
2021/05/16 04:19:00;;;;;;;8.63;7.07;;;10.00;98.30;;;;;;5157868;23;20467;-83
2021/05/16 04:21:03;;;;;;;12.07;7.70;;;10.00;98.30;;;;;;5161021;23;20515;-83
2021/05/16 04:23:06;;;;;;;9.57;7.67;;;10.00;98.30;;;;;;5152148;23;20862;-84
2021/05/16 04:25:09;;;;;;;10.50;7.40;;;10.00;98.30;;;;;;5161020;23;20425;-84
2021/05/16 04:27:12;;;;;;;8.80;7.90;;;9.90;98.30;;;;;;5163551;23;20444;-83
2021/05/16 04:29:14;;;;;;;8.40;7.57;;;9.90;98.30;;;;;;5152760;23;20512;-83
2021/05/16 04:31:19;;;;;;;9.00;7.10;;;9.90;98.30;;;;;;5152453;23;20843;-83
2021/05/16 04:33:22;;;;;;;8.00;6.80;;;9.90;98.30;;;;;;5156614;23;20444;-83
2021/05/16 04:35:24;;;;;;;7.57;6.87;;;9.90;98.30;;;;;;5159368;23;20500;-83
2021/05/16 04:37:27;;;;;;;8.73;7.27;;;9.90;98.30;;;;;;5163688;23;20421;-83
2021/05/16 04:39:30;;;;;;;7.53;6.60;;;9.90;98.30;;;;;;5159558;23;20428;-83
2021/05/16 04:41:33;;;;;;;9.73;7.27;;;10.00;98.30;;;;;;5157953;23;20798;-82
2021/05/16 04:43:35;;;;;;;7.83;7.03;;;9.90;98.30;;;;;;5166922;23;20484;-83
2021/05/16 04:45:38;;;;;;;7.53;6.83;;;9.90;98.30;;;;;;5158479;23;20432;-83
2021/05/16 04:47:40;;;;;;;8.23;7.30;;;10.00;98.30;;;;;;5158953;23;20433;-83
2021/05/16 04:49:43;;;;;;;9.93;7.93;;;10.10;98.30;;;;;;5168516;23;20417;-82
2021/05/16 04:51:45;;;;;;;8.30;7.50;;;10.10;98.30;;;;;;5159982;23;20433;-82
2021/05/16 04:53:48;;;;;;;10.27;8.87;;;10.10;98.30;;;;;;5159823;23;20496;-82
2021/05/16 04:55:51;;;;;;;7.53;6.83;;;10.10;98.30;;;;;;5157641;23;20429;-83
2021/05/16 04:57:53;;;;;;;11.33;7.93;;;10.10;98.30;;;;;;5166680;23;20435;-82
2021/05/16 04:59:56;;;;;;;7.70;6.97;;;10.10;98.30;;;;;;5158308;23;20428;-82
2021/05/16 05:01:59;;;;;;;8.20;7.40;;;10.20;98.30;;;;;;5166840;23;20759;-83
2021/05/16 05:04:03;;;;;;;7.40;6.70;;;10.20;98.30;;;;;;5168564;23;20468;-81
2021/05/16 05:06:05;;;;;;;7.67;6.87;;;10.20;98.30;;;;;;5169190;23;20433;-83
2021/05/16 05:08:08;;;;;;;8.23;7.07;;;10.30;98.30;;;;;;5161673;23;20464;-83
2021/05/16 05:10:13;;;;;;;7.20;6.50;;;10.20;98.30;;;;;;5169102;23;20429;-82
2021/05/16 05:12:15;;;;;;;7.60;6.80;;;10.20;98.30;;;;;;5169521;23;20494;-82
2021/05/16 05:14:17;;;;;;;7.60;6.67;;;10.30;98.30;;;;;;5160236;23;20448;-82
2021/05/16 05:16:20;;;;;;;8.20;6.97;;;10.30;98.30;;;;;;5161284;23;20409;-83
2021/05/16 05:18:22;;;;;;;7.63;6.87;;;10.30;98.30;;;;;;5170538;22;20417;-82
2021/05/16 05:20:25;;;;;;;7.17;6.47;;;10.40;98.30;;;;;;5161345;23;20445;-82
2021/05/16 05:22:28;;;;;;;7.40;6.60;;;10.40;98.30;;;;;;5160290;23;20433;-83
2021/05/16 05:24:30;;;;;;;7.97;7.17;;;10.60;98.30;;;;;;5159594;23;20436;-82
2021/05/16 05:26:37;;;;;;;12.00;7.17;;;10.60;98.30;;;;;;5169354;23;20473;-83
2021/05/16 05:28:40;;;;;;;9.17;7.33;;;10.60;98.30;;;;;;5160668;23;20441;-83
2021/05/16 05:30:42;;;;;;;11.30;8.30;;;10.70;98.30;;;;;;5168482;23;20452;-83
2021/05/16 05:32:45;;;;;;;7.23;6.53;;;10.70;98.30;;;;;;5168335;23;20425;-83
2021/05/16 05:34:47;;;;;;;7.27;6.27;;;10.80;98.30;;;;;;5167096;23;20440;-83
2021/05/16 05:36:50;;;;;;;7.30;6.60;;;10.70;98.30;;;;;;5166741;23;20424;-82
2021/05/16 05:38:52;;;;;;;7.40;6.70;;;10.60;98.30;;;;;;5159040;23;20436;-82
2021/05/16 05:40:57;;;;;;;7.20;6.50;;;10.60;98.30;;;;;;5158542;23;20439;-82
2021/05/16 05:43:04;;;;;;;6.67;6.07;;;10.60;98.30;;;;;;5157834;23;20441;-82
2021/05/16 05:45:07;;;;;;;7.77;7.00;;;10.70;98.30;;;;;;5154554;23;20524;-83
2021/05/16 05:47:11;;;;;;;8.63;7.47;;;10.70;98.30;;;;;;5156304;23;20440;-83
2021/05/16 05:49:13;;;;;;;9.23;7.07;;;10.80;98.30;;;;;;5155555;23;20489;-83
2021/05/16 05:51:15;;;;;;;7.10;6.33;;;10.90;98.30;;;;;;5164820;23;20431;-82
2021/05/16 05:53:18;;;;;;;10.10;8.27;;;11.00;98.30;;;;;;5165069;23;20433;-83
2021/05/16 05:55:22;;;;;;;9.77;6.93;;;11.00;98.30;;;;;;5168643;23;20420;-83
2021/05/16 05:57:24;;;;;;;10.00;7.10;;;10.90;98.30;;;;;;5156468;23;20544;-82
2021/05/16 05:59:28;;;;;;;9.73;8.73;;;10.90;98.30;;;;;;5155396;23;20429;-82
2021/05/16 06:01:30;;;;;;;7.27;6.57;;;11.10;98.30;;;;;;5164533;23;20460;-83
2021/05/16 06:03:33;;;;;;;7.97;6.80;;;11.20;98.30;;;;;;5157920;23;20483;-83
2021/05/16 06:05:35;;;;;;;7.67;6.87;;;11.10;98.30;;;;;;5162910;23;20425;-83
2021/05/16 06:07:37;;;;;;;9.30;6.87;;;11.10;98.30;;;;;;5159061;23;20489;-83
2021/05/16 06:09:40;;;;;;;7.60;6.83;;;11.20;98.30;;;;;;5159791;23;20432;-83
2021/05/16 06:11:42;;;;;;;8.17;6.60;;;11.30;98.30;;;;;;5168366;23;20488;-83
2021/05/16 06:13:45;;;;;;;7.47;6.30;;;11.30;98.30;;;;;;5167878;23;20460;-82
2021/05/16 06:15:48;;;;;;;7.90;7.10;;;11.50;98.30;;;;;;5158675;23;20476;-84
2021/05/16 06:17:51;;;;;;;7.33;6.37;;;11.40;98.30;;;;;;5159607;23;20432;-83
2021/05/16 06:19:53;;;;;;;7.73;6.93;;;11.40;98.30;;;;;;5166416;23;20420;-83
2021/05/16 06:21:56;;;;;;;7.80;6.80;;;11.40;98.30;;;;;;5166970;23;20474;-82
2021/05/16 06:24:05;;;;;;;8.00;7.20;;;11.50;98.30;;;;;;5168738;22;20432;-81
2021/05/16 06:26:07;;;;;;;7.80;7.00;;;11.50;98.30;;;;;;5162132;22;20421;-82
2021/05/16 06:28:12;;;;;;;8.13;6.93;;;11.50;98.30;;;;;;5162883;22;20424;-82
2021/05/16 06:30:16;;;;;;;10.73;7.70;;;11.60;98.30;;;;;;5162400;22;20412;-82
2021/05/16 06:32:20;;;;;;;7.73;6.80;;;11.60;98.30;;;;;;5162542;22;20409;-82
2021/05/16 06:34:22;;;;;;;8.80;7.90;;;11.40;98.30;;;;;;5161806;22;20436;-82
2021/05/16 06:36:25;;;;;;;10.93;8.10;;;11.50;98.30;;;;;;5162759;22;20425;-83
2021/05/16 06:38:28;;;;;;;8.37;6.77;;;11.50;98.30;;;;;;5156160;22;20431;-84
2021/05/16 06:40:32;;;;;;;9.40;7.50;;;11.60;98.30;;;;;;5155146;23;20466;-83
2021/05/16 06:42:37;;;;;;;8.60;7.80;;;11.60;98.30;;;;;;5165675;23;20409;-83
2021/05/16 06:44:40;;;;;;;7.73;7.00;;;11.60;98.30;;;;;;5165650;23;20475;-83
2021/05/16 06:46:43;;;;;;;8.40;7.50;;;11.50;98.30;;;;;;5158345;23;20432;-82
2021/05/16 06:48:46;;;;;;;9.60;8.00;;;11.40;98.30;;;;;;5165411;23;20613;-82
2021/05/16 06:51:39;;;;;;;8.57;7.67;;;11.40;98.30;;;;;;5157014;23;20445;-83
2021/05/16 06:53:41;;;;;;;10.70;8.77;;;11.30;98.30;;;;;;5132547;23;20456;-81
2021/05/16 06:55:43;;;;;;;9.93;8.93;;;11.30;98.30;;;;;;5157522;23;20428;-82
2021/05/16 06:57:46;;;;;;;9.47;8.50;;;11.30;98.30;;;;;;5166506;23;20428;-83
2021/05/16 06:59:48;;;;;;;9.17;8.27;;;11.40;98.30;;;;;;5165336;23;20424;-82
2021/05/16 07:01:51;;;;;;;8.00;7.20;;;11.40;98.30;;;;;;5157103;23;20468;-82
2021/05/16 07:03:54;;;;;;;11.10;9.60;;;11.40;98.30;;;;;;5158512;23;20453;-82
2021/05/16 07:05:59;;;;;;;10.23;9.10;;;11.50;98.30;;;;;;5167777;23;20477;-81
2021/05/16 07:08:03;;;;;;;10.30;8.70;;;11.70;98.30;;;;;;5159849;23;20418;-82
2021/05/16 07:10:07;;;;;;;9.87;8.60;;;11.80;98.30;;;;;;5166862;23;20448;-83
2021/05/16 07:12:10;;;;;;;13.37;12.07;;;11.80;98.30;;;;;;5159351;23;20464;-82
2021/05/16 07:14:12;;;;;;;10.50;9.50;;;12.00;98.30;;;;;;5158764;23;20448;-82
2021/05/16 07:16:15;;;;;;;11.20;9.70;;;12.00;98.30;;;;;;5168289;23;20421;-82
2021/05/16 07:18:17;;;;;;;10.50;9.50;;;12.00;98.30;;;;;;5161559;22;20480;-83
2021/05/16 07:20:21;;;;;;;10.73;9.63;;;12.10;98.30;;;;;;5160475;23;20413;-82
2021/05/16 07:22:23;;;;;;;12.47;10.67;;;12.20;98.30;;;;;;5168319;23;20409;-83
2021/05/16 07:24:49;;;;;;;11.97;10.73;;;12.20;98.30;;;;;;5158825;23;20449;-82
2021/05/16 07:26:51;;;;;;;12.40;11.23;;;12.30;98.30;;;;;;5159633;23;20405;-83
2021/05/16 07:28:54;;;;;;;12.13;11.03;;;12.30;98.30;;;;;;5160592;23;20480;-83
2021/05/16 07:30:57;;;;;;;13.07;11.77;;;12.50;98.30;;;;;;5156547;23;20426;-83
2021/05/16 07:33:03;;;;;;;14.23;12.73;;;12.60;98.30;;;;;;5157428;23;20822;-83
2021/05/16 07:35:07;;;;;;;13.80;12.50;;;12.60;98.30;;;;;;5150392;23;20471;-83
2021/05/16 07:37:10;;;;;;;13.40;12.20;;;12.50;98.30;;;;;;5158562;23;20417;-82
2021/05/16 07:39:12;;;;;;;13.47;12.17;;;12.50;98.30;;;;;;5150755;23;20425;-83
2021/05/16 07:41:15;;;;;;;14.10;12.87;;;12.50;98.30;;;;;;5150172;23;20443;-82
2021/05/16 07:43:17;;;;;;;12.03;10.93;;;12.60;98.30;;;;;;5148564;23;20990;-82
2021/05/16 07:45:22;;;;;;;12.60;11.40;;;12.60;98.30;;;;;;5147780;23;20429;-82
2021/05/16 07:47:25;;;;;;;13.10;10.60;;;12.70;98.30;;;;;;5146995;23;20479;-82
2021/05/16 07:49:27;;;;;;;11.70;10.70;;;12.80;98.30;;;;;;5157669;23;20943;-81
2021/05/16 07:51:30;;;;;;;12.37;11.27;;;12.70;98.30;;;;;;5158401;23;20428;-82
2021/05/16 07:53:35;;;;;;;12.50;11.40;;;12.70;98.30;;;;;;5165590;23;20540;-83
2021/05/16 07:55:39;;;;;;;12.57;11.40;;;12.70;98.30;;;;;;5166037;23;20889;-81
2021/05/16 07:57:42;;;;;;;10.37;9.43;;;12.60;98.30;;;;;;5166398;23;20448;-83
2021/05/16 07:59:44;;;;;;;11.50;10.30;;;12.50;98.30;;;;;;5163706;23;20443;-82
2021/05/16 08:01:47;;;;;;;11.80;10.80;;;12.70;98.30;;;;;;5146683;23;20468;-82
2021/05/16 08:03:49;;;;;;;10.90;10.00;;;12.80;98.30;;;;;;5153772;23;20441;-81
2021/05/16 08:05:52;;;;;;;9.03;8.23;;;12.70;98.30;;;;;;5141905;23;20420;-81
2021/05/16 08:07:54;;;;;;;10.20;9.30;;;12.60;98.30;;;;;;5142013;23;20937;-80
2021/05/16 08:09:58;;;;;;;10.47;9.47;;;12.50;98.30;;;;;;5142074;23;20475;-81
2021/05/16 08:12:00;;;;;;;11.10;10.00;;;12.40;98.30;;;;;;5150107;23;20987;-81
2021/05/16 08:14:04;;;;;;;10.60;9.50;;;12.40;98.30;;;;;;5142733;23;20747;-80
2021/05/16 08:16:06;;;;;;;11.17;10.13;;;12.50;98.30;;;;;;5145507;23;20435;-80
2021/05/16 08:18:10;;;;;;;10.80;9.70;;;12.50;98.30;;;;;;5145786;23;20464;-79
2021/05/16 08:20:13;;;;;;;11.00;10.00;;;12.40;98.30;;;;;;5145386;23;20498;-80
2021/05/16 08:22:16;;;;;;;10.37;9.37;;;12.40;98.30;;;;;;5145088;23;20511;-80
2021/05/16 08:24:18;;;;;;;10.07;9.07;;;12.40;98.30;;;;;;5144853;23;21025;-80
2021/05/16 08:26:22;;;;;;;10.17;9.17;;;12.50;98.30;;;;;;5146381;23;20512;-80
2021/05/16 08:28:25;;;;;;;14.27;9.67;;;12.70;98.30;;;;;;5145435;23;20440;-82
2021/05/16 08:30:28;;;;;;;9.27;8.37;;;12.80;98.30;;;;;;5145287;23;20842;-81
2021/05/16 08:32:30;;;;;;;9.87;8.93;;;12.90;98.30;;;;;;5143989;23;20439;-81
2021/05/16 08:34:33;;;;;;;9.17;8.30;;;13.10;98.30;;;;;;5151586;23;20445;-81
2021/05/16 08:36:38;;;;;;;9.50;8.70;;;13.20;98.30;;;;;;5144633;23;20433;-81
2021/05/16 08:38:41;;;;;;;10.47;9.43;;;13.30;98.30;;;;;;5152550;23;20485;-81
2021/05/16 08:40:43;;;;;;;9.57;8.57;;;13.50;98.30;;;;;;5144268;23;20877;-81
2021/05/16 08:42:47;;;;;;;10.00;9.00;;;13.70;98.30;;;;;;5143263;23;20433;-81
2021/05/16 08:44:50;;;;;;;8.37;7.67;;;13.80;98.30;;;;;;5150997;23;20490;-82
2021/05/16 08:46:53;;;;;;;9.30;8.40;;;13.80;98.30;;;;;;5144142;23;20417;-81
2021/05/16 08:48:56;;;;;;;10.03;9.13;;;14.00;98.30;;;;;;5144522;23;21120;-81
2021/05/16 08:51:05;;;;;;;10.70;9.60;;;14.00;98.30;;;;;;5144974;23;20444;-81
2021/05/16 08:53:08;;;;;;;9.53;8.63;;;13.80;98.30;;;;;;5142886;23;20774;-81
2021/05/16 08:55:12;;;;;;;9.40;8.40;;;13.80;98.30;;;;;;5142147;23;20428;-81
2021/05/16 08:57:15;;;;;;;8.87;8.07;;;13.70;98.30;;;;;;5142817;23;20512;-81
2021/05/16 08:59:20;;;;;;;8.53;7.73;;;13.70;98.30;;;;;;5141787;23;20432;-80
2021/05/16 09:01:24;;;;;;;10.33;9.07;;;13.80;98.30;;;;;;5142621;23;20483;-81
2021/05/16 09:03:27;;;;;;;9.67;8.67;;;13.90;98.30;;;;;;5142594;23;20988;-81
2021/05/16 09:05:36;;;;;;;9.13;8.23;;;13.90;98.30;;;;;;5142529;23;20445;-81
2021/05/16 09:07:38;;;;;;;10.47;9.43;;;14.10;98.30;;;;;;5143647;23;20419;-81
2021/05/16 09:09:41;;;;;;;9.77;8.77;;;14.30;98.30;;;;;;5152009;23;20417;-81
2021/05/16 09:11:53;;;;;;;8.70;7.90;;;14.40;98.30;;;;;;5151196;23;20424;-81
2021/05/16 09:13:56;;;;;;;9.00;8.20;;;14.50;98.30;;;;;;5150658;23;20444;-81
2021/05/16 09:16:02;;;;;;;8.90;8.00;;;14.80;98.30;;;;;;5143737;23;20429;-81
2021/05/16 09:18:05;;;;;;;10.07;9.20;;;14.60;98.30;;;;;;5144275;23;20437;-81
2021/05/16 09:20:14;;;;;;;9.50;8.10;;;14.60;98.30;;;;;;5143778;23;20429;-81
2021/05/16 09:22:30;;;;;;;8.87;8.17;;;14.50;98.30;;;;;;5144180;23;20439;-81
2021/05/16 09:24:32;;;;;;;10.37;9.37;;;14.60;98.30;;;;;;5150696;23;20848;-82
2021/05/16 09:26:36;;;;;;;9.70;8.77;;;14.70;98.30;;;;;;5143718;23;20453;-81
2021/05/16 09:28:39;;;;;;;12.53;10.03;;;14.70;98.30;;;;;;5143985;23;20435;-81
2021/05/16 09:30:42;;;;;;;9.40;8.60;;;14.60;98.30;;;;;;5152641;23;20777;-81
2021/05/16 09:32:47;;;;;;;9.60;8.73;;;14.60;98.30;;;;;;5144191;23;20429;-81
2021/05/16 09:34:51;;;;;;;10.63;9.57;;;14.70;98.30;;;;;;5143622;23;20409;-81
2021/05/16 09:36:54;;;;;;;10.40;8.13;;;14.60;98.30;;;;;;5143474;23;20429;-81
2021/05/16 09:39:11;;;;;;;7.87;7.10;;;14.50;98.30;;;;;;5142699;23;20488;-81
2021/05/16 09:41:20;;;;;;;8.53;7.53;;;14.40;98.30;;;;;;5142259;23;20417;-81
2021/05/16 09:43:24;;;;;;;7.97;7.10;;;14.40;98.30;;;;;;5142226;23;20458;-81
2021/05/16 09:45:41;;;;;;;8.27;7.50;;;14.40;98.30;;;;;;5140665;23;20449;-82
2021/05/16 09:47:43;;;;;;;10.60;8.07;;;14.10;98.30;;;;;;5142231;23;20414;-81
2021/05/16 09:49:49;;;;;;;11.20;7.83;;;14.00;98.30;;;;;;5141322;23;20938;-81
2021/05/16 09:51:51;;;;;;;9.37;8.40;;;13.90;98.30;;;;;;5141269;23;20413;-81
2021/05/16 09:54:00;;;;;;;9.77;8.70;;;13.90;98.30;;;;;;5149619;23;20516;-81
2021/05/16 09:56:17;;;;;;;9.37;8.47;;;13.70;98.30;;;;;;5147795;23;20421;-81
2021/05/16 09:58:19;;;;;;;9.60;8.70;;;13.60;98.30;;;;;;5142702;23;21136;-81
2021/05/16 10:00:22;;;;;;;11.73;9.00;;;13.60;98.30;;;;;;5141733;23;20461;-82
2021/05/16 10:02:27;;;;;;;10.67;8.40;;;13.60;98.30;;;;;;5142981;23;20413;-82
2021/05/16 10:04:30;;;;;;;9.57;7.60;;;13.60;98.30;;;;;;5144108;23;20488;-82
2021/05/16 10:06:35;;;;;;;8.23;7.43;;;13.70;98.30;;;;;;5151777;23;20918;-82
2021/05/16 10:08:39;;;;;;;9.40;7.40;;;13.70;98.30;;;;;;5151854;23;20406;-82
2021/05/16 10:10:41;;;;;;;6.93;6.10;;;13.80;98.30;;;;;;5142407;23;20432;-81
2021/05/16 10:12:43;;;;;;;8.37;5.93;;;13.80;98.30;;;;;;5150507;23;20960;-82
2021/05/16 10:14:48;;;;;;;8.13;4.17;;;14.10;98.30;;;;;;5150929;23;20496;-81
2021/05/16 10:16:52;;;;;;;5.13;4.63;;;14.20;98.30;;;;;;5150307;23;21226;-81
2021/05/16 10:18:56;;;;;;;4.90;4.50;;;14.20;98.30;;;;;;5150515;23;20428;-81
2021/05/16 10:20:59;;;;;;;5.83;5.33;;;14.30;98.30;;;;;;5141938;23;20826;-81
2021/05/16 10:23:03;;;;;;;5.70;5.10;;;14.40;98.30;;;;;;5150899;23;20436;-81
2021/05/16 10:25:07;;;;;;;7.90;5.93;;;14.60;98.30;;;;;;5151440;23;20449;-82
2021/05/16 10:27:18;;;;;;;5.50;5.00;;;14.80;98.30;;;;;;5143108;23;20432;-81
2021/05/16 10:29:22;;;;;;;6.17;5.57;;;15.10;98.30;;;;;;5142686;23;20451;-82
2021/05/16 10:31:52;;;;;;;6.50;5.90;;;15.40;98.30;;;;;;5150355;23;20416;-81
2021/05/16 10:33:56;;;;;;;5.83;5.33;;;15.90;98.30;;;;;;5144638;23;20448;-82
2021/05/16 10:36:00;;;;;;;5.73;5.10;;;16.20;98.30;;;;;;5157253;23;20441;-84
2021/05/16 10:38:03;;;;;;;6.87;6.27;;;16.20;98.30;;;;;;5143832;23;20463;-82
2021/05/16 10:40:21;;;;;;;7.87;6.93;;;15.80;98.30;;;;;;5153937;23;20515;-82
2021/05/16 10:42:35;;;;;;;9.10;7.33;;;15.50;98.30;;;;;;5155196;23;20425;-82
2021/05/16 10:44:40;;;;;;;9.63;7.07;;;15.20;98.30;;;;;;5146012;23;20523;-83
2021/05/16 10:46:43;;;;;;;8.83;7.63;;;15.00;98.30;;;;;;5165302;23;20421;-81
2021/05/16 10:48:46;;;;;;;9.27;8.37;;;14.90;98.30;;;;;;5156794;23;20424;-81
2021/05/16 10:53:30;;;;;;;8.50;7.70;;;15.00;98.30;;;;;;5141957;22;20994;-86
2021/05/16 10:55:36;;;;;;;7.93;7.20;;;14.90;98.30;;;;;;5151156;23;20416;-86